Time;durP1;ratioP1;P1;durP2;ratioP2;P2;SDS_P1;SDS_P2;PMS_P1;PMS_P2;Temp;Humidity;BMP_temperature;BMP_pressure;BME280_temperature;BME280_humidity;BME280_pressure;Samples;Min_cycle;Max_cycle;Signal;HPM_P1;HPM_P2
2023/07/21 00:09:50;;;;;;;8.63;4.63;;;;;;;;;;21006221;28;20048;-64
2023/07/21 00:19:52;;;;;;;5.88;4.20;;;;;;;;;;21005637;28;20045;-64
2023/07/21 00:29:53;;;;;;;10.25;5.30;;;;;;;;;;21004609;28;20040;-64
2023/07/21 00:39:54;;;;;;;15.70;12.15;;;;;;;;;;21003319;28;20103;-64
2023/07/21 00:49:56;;;;;;;9.57;5.00;;;;;;;;;;21001662;28;20067;-63
2023/07/21 00:59:57;;;;;;;8.43;4.30;;;;;;;;;;21001640;28;20044;-62
2023/07/21 01:09:59;;;;;;;6.70;4.43;;;;;;;;;;21001956;28;20055;-62
2023/07/21 01:20:01;;;;;;;9.63;4.70;;;;;;;;;;21001598;28;20041;-62
2023/07/21 01:30:06;;;;;;;5.18;3.70;;;;;;;;;;21000711;28;20543;-63
2023/07/21 01:40:07;;;;;;;6.03;4.17;;;;;;;;;;21000369;28;20139;-63
2023/07/21 01:50:13;;;;;;;7.70;3.95;;;;;;;;;;20999185;28;20072;-63
2023/07/21 02:00:15;;;;;;;8.87;4.37;;;;;;;;;;20997614;28;20041;-62
2023/07/21 02:10:16;;;;;;;8.15;4.93;;;;;;;;;;20996657;28;20300;-62
2023/07/21 02:20:17;;;;;;;6.72;4.40;;;;;;;;;;20997779;28;20405;-62
2023/07/21 02:30:18;;;;;;;5.88;3.90;;;;;;;;;;20996043;28;20090;-62
2023/07/21 02:40:19;;;;;;;7.57;3.90;;;;;;;;;;20996945;28;20063;-62
2023/07/21 02:50:23;;;;;;;7.70;5.30;;;;;;;;;;20996265;28;20036;-62
2023/07/21 03:00:24;;;;;;;7.90;4.50;;;;;;;;;;20994893;28;20048;-62
2023/07/21 03:10:25;;;;;;;6.85;4.55;;;;;;;;;;20993392;28;20036;-61
2023/07/21 03:20:26;;;;;;;9.77;4.72;;;;;;;;;;21003233;28;20032;-62
2023/07/21 03:30:27;;;;;;;7.07;4.20;;;;;;;;;;21009272;28;20062;-62
2023/07/21 03:40:28;;;;;;;7.20;4.72;;;;;;;;;;21009093;28;20509;-63
2023/07/21 03:50:29;;;;;;;7.07;4.38;;;;;;;;;;21008930;28;20055;-62
2023/07/21 04:00:31;;;;;;;6.60;4.13;;;;;;;;;;21008116;28;20048;-62
2023/07/21 04:10:32;;;;;;;5.85;3.85;;;;;;;;;;21006896;28;20040;-61
2023/07/21 04:20:33;;;;;;;6.25;4.13;;;;;;;;;;21006733;28;20394;-62
2023/07/21 04:30:34;;;;;;;11.05;4.97;;;;;;;;;;21005646;28;20120;-62
2023/07/21 04:40:35;;;;;;;6.13;4.38;;;;;;;;;;21003770;28;20044;-62
2023/07/21 04:50:37;;;;;;;6.80;4.05;;;;;;;;;;21004406;28;20076;-62
2023/07/21 05:00:38;;;;;;;6.53;4.18;;;;;;;;;;21003775;28;20448;-63
2023/07/21 05:10:39;;;;;;;26.02;5.82;;;;;;;;;;21002440;28;20047;-62
2023/07/21 05:20:41;;;;;;;7.85;4.45;;;;;;;;;;21001683;28;20097;-62
2023/07/21 05:30:42;;;;;;;7.03;4.45;;;;;;;;;;21002399;28;20493;-61
2023/07/21 05:40:43;;;;;;;6.68;4.57;;;;;;;;;;20998861;28;20113;-62
2023/07/21 05:50:44;;;;;;;7.80;4.38;;;;;;;;;;20998170;28;20044;-62
2023/07/21 06:00:45;;;;;;;8.68;4.22;;;;;;;;;;20998858;28;20047;-62
2023/07/21 06:10:46;;;;;;;5.03;3.63;;;;;;;;;;20997998;28;20040;-62
2023/07/21 06:20:48;;;;;;;7.18;4.03;;;;;;;;;;20997505;28;20117;-62
2023/07/21 06:30:49;;;;;;;8.02;3.90;;;;;;;;;;20997059;28;20170;-62
2023/07/21 06:40:51;;;;;;;12.10;3.85;;;;;;;;;;20995911;28;20044;-62
2023/07/21 06:50:53;;;;;;;8.70;3.70;;;;;;;;;;20998259;28;20044;-62
2023/07/21 07:00:57;;;;;;;6.47;4.00;;;;;;;;;;21013578;28;20049;-62
2023/07/21 07:10:58;;;;;;;8.48;3.97;;;;;;;;;;21012004;28;20515;-62
2023/07/21 07:20:59;;;;;;;12.45;4.25;;;;;;;;;;21011262;28;20045;-63
2023/07/21 07:31:04;;;;;;;6.20;3.50;;;;;;;;;;21009949;28;20037;-62
2023/07/21 07:41:08;;;;;;;9.20;3.88;;;;;;;;;;21008774;28;20049;-62
2023/07/21 07:51:09;;;;;;;13.93;4.05;;;;;;;;;;21008701;28;20393;-62
2023/07/21 08:01:13;;;;;;;7.20;3.78;;;;;;;;;;21007570;28;20495;-62
2023/07/21 08:11:14;;;;;;;12.35;3.67;;;;;;;;;;21007500;28;20174;-62
2023/07/21 08:21:22;;;;;;;9.52;3.88;;;;;;;;;;21005247;28;20076;-62
2023/07/21 08:31:23;;;;;;;7.47;3.95;;;;;;;;;;21005561;28;20047;-63
2023/07/21 08:41:25;;;;;;;6.70;3.40;;;;;;;;;;21003669;28;20048;-63
2023/07/21 08:51:26;;;;;;;7.47;4.00;;;;;;;;;;21002915;28;20084;-62
2023/07/21 09:01:27;;;;;;;8.77;3.60;;;;;;;;;;21003354;28;20234;-62
2023/07/21 09:11:35;;;;;;;7.07;3.95;;;;;;;;;;21002720;28;20045;-62
2023/07/21 09:21:37;;;;;;;9.25;4.20;;;;;;;;;;21001133;28;20045;-62
2023/07/21 09:31:41;;;;;;;8.20;4.20;;;;;;;;;;21001047;28;20048;-62
2023/07/21 09:41:42;;;;;;;9.68;3.63;;;;;;;;;;20999404;28;20110;-63
2023/07/21 09:51:45;;;;;;;12.88;4.20;;;;;;;;;;20999384;28;20446;-63
2023/07/21 10:01:47;;;;;;;8.00;4.43;;;;;;;;;;20998631;28;20040;-62
2023/07/21 10:11:48;;;;;;;8.15;4.55;;;;;;;;;;20998114;28;20076;-62
2023/07/21 10:21:50;;;;;;;11.15;4.53;;;;;;;;;;20997517;28;20048;-63
2023/07/21 10:31:53;;;;;;;7.20;4.32;;;;;;;;;;20996935;28;20040;-62
2023/07/21 10:41:55;;;;;;;7.53;4.28;;;;;;;;;;20995900;28;20057;-63
2023/07/21 10:51:56;;;;;;;7.93;4.80;;;;;;;;;;20994643;28;20045;-62
2023/07/21 11:01:57;;;;;;;8.80;4.65;;;;;;;;;;20994484;28;20041;-62
2023/07/21 11:11:58;;;;;;;10.65;5.25;;;;;;;;;;20994118;28;20057;-63
2023/07/21 11:22:00;;;;;;;6.70;5.05;;;;;;;;;;20994084;28;20043;-63
2023/07/21 11:32:03;;;;;;;8.30;5.00;;;;;;;;;;20994788;28;20036;-64
2023/07/21 11:42:04;;;;;;;9.73;5.20;;;;;;;;;;21003030;28;20067;-62
2023/07/21 11:52:05;;;;;;;8.98;5.55;;;;;;;;;;21008758;28;20120;-63
2023/07/21 12:02:08;;;;;;;8.63;5.47;;;;;;;;;;21006688;28;20047;-63
2023/07/21 12:12:09;;;;;;;9.75;5.25;;;;;;;;;;21007674;28;20048;-63
2023/07/21 12:22:10;;;;;;;8.95;5.75;;;;;;;;;;21004872;28;20052;-65
2023/07/21 12:32:12;;;;;;;9.40;5.63;;;;;;;;;;21006186;28;20482;-63
2023/07/21 12:42:13;;;;;;;6.85;5.13;;;;;;;;;;21002922;28;20106;-63
2023/07/21 12:52:14;;;;;;;7.53;5.60;;;;;;;;;;21003548;28;20048;-63
2023/07/21 13:02:15;;;;;;;7.57;5.38;;;;;;;;;;21002072;28;20055;-62
2023/07/21 13:12:17;;;;;;;9.85;6.60;;;;;;;;;;21002753;28;20045;-62
2023/07/21 13:22:18;;;;;;;8.90;6.25;;;;;;;;;;21002102;28;20040;-63
2023/07/21 13:32:19;;;;;;;13.23;4.82;;;;;;;;;;20999426;28;20053;-63
2023/07/21 13:42:20;;;;;;;7.25;4.97;;;;;;;;;;20998775;28;20063;-63
2023/07/21 13:52:21;;;;;;;8.55;5.68;;;;;;;;;;20999523;28;20125;-63
2023/07/21 14:02:23;;;;;;;6.43;4.60;;;;;;;;;;20996982;28;20105;-63
2023/07/21 14:12:25;;;;;;;7.97;4.28;;;;;;;;;;20998189;28;20045;-63
2023/07/21 14:22:26;;;;;;;5.97;4.28;;;;;;;;;;20997598;28;20106;-64
2023/07/21 14:32:27;;;;;;;4.88;3.53;;;;;;;;;;20997609;28;20051;-63
2023/07/21 14:42:28;;;;;;;7.25;4.32;;;;;;;;;;20995381;28;20136;-63
2023/07/21 14:52:30;;;;;;;9.35;6.00;;;;;;;;;;20991854;28;20051;-63
2023/07/21 15:02:31;;;;;;;7.72;4.85;;;;;;;;;;20994434;28;20044;-63
2023/07/21 15:12:32;;;;;;;6.05;4.57;;;;;;;;;;20997212;28;20040;-63
2023/07/21 15:22:34;;;;;;;7.22;5.65;;;;;;;;;;21009782;28;20046;-63
2023/07/21 15:32:35;;;;;;;8.48;7.00;;;;;;;;;;21009290;28;20051;-62
2023/07/21 15:42:36;;;;;;;8.55;4.97;;;;;;;;;;21008391;28;20048;-63
2023/07/21 15:52:38;;;;;;;6.97;5.18;;;;;;;;;;21007502;28;20036;-64
2023/07/21 16:02:39;;;;;;;4.57;3.58;;;;;;;;;;21007983;28;20078;-63
2023/07/21 16:12:41;;;;;;;4.55;3.78;;;;;;;;;;21006398;28;20094;-63
2023/07/21 16:22:42;;;;;;;8.07;5.05;;;;;;;;;;21005759;28;20052;-62
2023/07/21 16:32:43;;;;;;;6.78;4.78;;;;;;;;;;21005486;28;20052;-63
2023/07/21 16:42:44;;;;;;;5.00;3.80;;;;;;;;;;21004158;28;20052;-62
2023/07/21 16:52:46;;;;;;;8.15;3.42;;;;;;;;;;20980713;28;20041;-63
2023/07/21 17:02:47;;;;;;;5.10;2.72;;;;;;;;;;20976401;28;20055;-63
2023/07/21 17:12:48;;;;;;;5.30;3.65;;;;;;;;;;20997363;28;20048;-63
2023/07/21 17:22:49;;;;;;;6.03;3.38;;;;;;;;;;20997576;28;20040;-63
2023/07/21 17:32:50;;;;;;;5.45;3.42;;;;;;;;;;20990528;28;20102;-64
2023/07/21 17:42:52;;;;;;;5.25;4.07;;;;;;;;;;20994830;28;20056;-62
2023/07/21 17:52:53;;;;;;;5.70;3.78;;;;;;;;;;20997168;28;20044;-63
2023/07/21 18:02:54;;;;;;;5.43;3.50;;;;;;;;;;20997535;28;20040;-63
2023/07/21 18:12:58;;;;;;;6.88;5.00;;;;;;;;;;20996729;28;20051;-60
2023/07/21 18:23:00;;;;;;;7.20;4.57;;;;;;;;;;20996957;28;20041;-62
2023/07/21 18:33:01;;;;;;;7.38;4.47;;;;;;;;;;20996280;28;20417;-62
2023/07/21 18:43:03;;;;;;;6.60;4.70;;;;;;;;;;20995420;28;20047;-67
2023/07/21 18:53:06;;;;;;;6.90;4.68;;;;;;;;;;21019236;28;20509;-67
2023/07/21 19:03:07;;;;;;;10.30;5.15;;;;;;;;;;21022740;28;20054;-67
2023/07/21 19:13:08;;;;;;;7.53;4.53;;;;;;;;;;21022304;28;20104;-67
2023/07/21 19:23:09;;;;;;;7.22;4.30;;;;;;;;;;21022262;28;20131;-66
2023/07/21 19:33:10;;;;;;;9.02;5.53;;;;;;;;;;21022224;28;20401;-66
2023/07/21 19:43:11;;;;;;;7.82;5.25;;;;;;;;;;21020280;28;20060;-67
2023/07/21 19:53:12;;;;;;;8.55;5.40;;;;;;;;;;21021279;28;20112;-67
2023/07/21 20:03:13;;;;;;;8.30;5.88;;;;;;;;;;21010785;28;20482;-66
2023/07/21 20:13:15;;;;;;;7.80;5.55;;;;;;;;;;21005903;28;20074;-67
2023/07/21 20:23:16;;;;;;;14.25;6.30;;;;;;;;;;21006303;28;20123;-67
2023/07/21 20:33:17;;;;;;;7.47;5.53;;;;;;;;;;21005856;28;20115;-67
2023/07/21 20:43:18;;;;;;;8.15;5.85;;;;;;;;;;21004075;28;20417;-67
2023/07/21 20:53:19;;;;;;;7.25;5.43;;;;;;;;;;21004604;28;20493;-66
2023/07/21 21:03:21;;;;;;;7.80;5.80;;;;;;;;;;21002003;28;20040;-67
2023/07/21 21:13:22;;;;;;;6.72;4.68;;;;;;;;;;21001339;28;20044;-68
2023/07/21 21:23:23;;;;;;;8.23;5.47;;;;;;;;;;21000085;28;20127;-67
2023/07/21 21:33:24;;;;;;;10.30;5.90;;;;;;;;;;21000694;28;20393;-68
2023/07/21 21:43:25;;;;;;;7.55;5.45;;;;;;;;;;20999813;28;20055;-66
2023/07/21 21:53:27;;;;;;;8.27;5.50;;;;;;;;;;20999167;28;20123;-66
2023/07/21 22:03:28;;;;;;;12.20;5.97;;;;;;;;;;20998378;28;20047;-67
2023/07/21 22:13:30;;;;;;;7.95;5.68;;;;;;;;;;20998094;28;20055;-66
2023/07/21 22:23:31;;;;;;;11.25;6.57;;;;;;;;;;20996895;28;20052;-66
2023/07/21 22:33:32;;;;;;;9.18;5.70;;;;;;;;;;20996751;28;20045;-66
2023/07/21 22:43:34;;;;;;;8.60;5.88;;;;;;;;;;20995805;28;20479;-66
2023/07/21 22:53:36;;;;;;;8.23;5.88;;;;;;;;;;20995995;28;20090;-65
2023/07/21 23:03:37;;;;;;;6.85;4.15;;;;;;;;;;20995979;28;20554;-66
2023/07/21 23:13:38;;;;;;;6.03;3.80;;;;;;;;;;20993996;28;20078;-65
2023/07/21 23:23:40;;;;;;;7.30;3.35;;;;;;;;;;20994110;28;20111;-66
2023/07/21 23:33:41;;;;;;;5.68;3.35;;;;;;;;;;20997681;28;20052;-66
2023/07/21 23:43:42;;;;;;;6.65;3.20;;;;;;;;;;21008932;28;20417;-66
2023/07/21 23:53:43;;;;;;;7.78;3.25;;;;;;;;;;21008919;28;20465;-65
